createdAt,value
2023-03-13T00:03:29.067Z,12.87
2023-03-13T00:08:32.154Z,19.13
2023-03-13T00:13:37.148Z,19.70
2023-03-13T00:18:40.760Z,15.03
2023-03-13T00:23:44.610Z,17.23
2023-03-13T00:28:51.021Z,17.50
2023-03-13T00:40:10.991Z,16.10
2023-03-13T00:45:15.609Z,18.87
2023-03-13T00:50:18.887Z,16.90
2023-03-13T00:55:21.943Z,21.77
2023-03-13T01:00:26.796Z,18.33
2023-03-13T01:05:29.876Z,14.63
2023-03-13T01:10:36.259Z,14.53
2023-03-13T01:15:40.744Z,10.57
2023-03-13T01:20:43.658Z,14.33
2023-03-13T01:25:46.545Z,9.83
2023-03-13T01:30:57.010Z,14.97
2023-03-13T01:36:06.584Z,11.73
2023-03-13T01:41:12.252Z,7.77
2023-03-13T01:46:18.797Z,9.77
2023-03-13T01:51:33.730Z,7.83
2023-03-13T01:56:42.258Z,5.20
2023-03-13T02:01:48.729Z,8.47
2023-03-13T02:06:55.555Z,8.73
2023-03-13T02:12:05.661Z,10.67
2023-03-13T02:17:09.964Z,8.57
2023-03-13T02:22:22.240Z,11.30
2023-03-13T02:27:26.734Z,13.00
2023-03-13T02:32:32.380Z,9.67
2023-03-13T02:37:36.825Z,10.67
2023-03-13T02:42:46.446Z,11.93
2023-03-13T02:47:49.701Z,13.13
2023-03-13T02:52:56.960Z,13.03
2023-03-13T02:58:02.783Z,9.17
2023-03-13T03:03:10.324Z,9.33
2023-03-13T03:08:13.612Z,8.33
2023-03-13T03:13:18.464Z,6.83
2023-03-13T03:18:21.981Z,4.60
2023-03-13T03:23:25.351Z,10.23
2023-03-13T03:28:30.462Z,6.00
2023-03-13T03:33:35.595Z,4.40
2023-03-13T03:38:42.235Z,4.97
2023-03-13T03:43:49.332Z,4.73
2023-03-13T03:48:56.056Z,6.30
2023-03-13T03:53:59.217Z,6.73
2023-03-13T03:59:05.844Z,6.90
2023-03-13T04:04:21.309Z,5.77
2023-03-13T04:09:31.568Z,7.63
2023-03-13T04:14:37.176Z,5.67
2023-03-13T04:19:43.642Z,4.77
2023-03-13T04:24:46.739Z,5.77
2023-03-13T04:29:51.250Z,5.10
2023-03-13T04:35:21.260Z,4.07
2023-03-13T04:40:44.325Z,4.00
2023-03-13T04:46:07.088Z,5.03
2023-03-13T04:51:12.956Z,3.30
2023-03-13T04:56:42.233Z,4.30
2023-03-13T05:02:14.338Z,5.90
2023-03-13T05:07:35.756Z,4.43
2023-03-13T05:13:08.220Z,7.80
2023-03-13T05:18:32.936Z,6.37
2023-03-13T05:24:08.217Z,5.27
2023-03-13T05:29:34.040Z,3.63
2023-03-13T05:35:08.111Z,3.40
2023-03-13T05:40:21.388Z,4.70
2023-03-13T05:45:39.864Z,5.57
2023-03-13T05:51:03.023Z,5.80
2023-03-13T05:56:24.788Z,5.10
2023-03-13T06:01:46.470Z,4.10
2023-03-13T06:06:58.501Z,5.97
2023-03-13T06:12:01.919Z,4.63
2023-03-13T06:17:06.639Z,4.63
2023-03-13T06:22:11.042Z,7.03
2023-03-13T06:27:14.120Z,5.67
2023-03-13T06:32:17.264Z,5.13
2023-03-13T06:37:21.742Z,6.73
2023-03-13T06:42:24.810Z,6.33
2023-03-13T06:47:27.895Z,5.93
2023-03-13T06:52:43.153Z,6.43
2023-03-13T06:57:51.378Z,6.30
2023-03-13T07:02:54.677Z,5.40
2023-03-13T07:07:59.079Z,6.73
2023-03-13T07:13:04.088Z,7.00
2023-03-13T07:18:07.425Z,8.17
2023-03-13T07:23:11.791Z,9.03
2023-03-13T07:28:14.794Z,7.00
2023-03-13T07:33:18.044Z,8.03
2023-03-13T07:38:22.602Z,5.93
2023-03-13T07:43:26.686Z,4.47
2023-03-13T07:48:32.023Z,4.60
2023-03-13T07:53:36.686Z,4.20
2023-03-13T07:58:41.517Z,3.87
2023-03-13T08:03:45.596Z,5.17
2023-03-13T08:08:50.811Z,3.20
2023-03-13T08:13:54.833Z,3.23
2023-03-13T08:18:59.914Z,4.57
2023-03-13T08:24:07.080Z,10.53
2023-03-13T08:29:12.368Z,6.30
2023-03-13T08:34:16.348Z,3.63
2023-03-13T08:39:21.707Z,4.67
2023-03-13T08:44:24.944Z,4.43
2023-03-13T08:49:28.131Z,4.93
2023-03-13T08:54:32.733Z,5.03
2023-03-13T08:59:37.756Z,5.87
2023-03-13T09:04:41.179Z,5.43
2023-03-13T09:09:45.981Z,3.77
2023-03-13T09:14:49.537Z,3.50
2023-03-13T09:20:00.180Z,4.03
2023-03-13T09:25:06.266Z,4.87
2023-03-13T09:30:10.682Z,5.77
2023-03-13T09:35:13.661Z,2.40
2023-03-13T09:40:23.130Z,2.60
2023-03-13T09:45:34.209Z,1.80
2023-03-13T09:50:41.492Z,1.80
2023-03-13T09:55:48.391Z,3.80
2023-03-13T10:00:56.317Z,1.77
2023-03-13T10:06:03.054Z,2.80
2023-03-13T10:11:12.308Z,3.17
2023-03-13T10:16:19.563Z,5.30
2023-03-13T10:21:26.350Z,3.70
2023-03-13T10:26:33.431Z,2.70
2023-03-13T10:31:38.764Z,3.77
2023-03-13T10:36:43.899Z,3.77
2023-03-13T10:41:50.272Z,2.77
2023-03-13T10:46:53.806Z,5.00
2023-03-13T10:52:00.725Z,3.20
2023-03-13T10:57:29.322Z,4.53
2023-03-13T11:02:35.721Z,2.47
2023-03-13T11:07:40.615Z,3.07
2023-03-13T11:12:47.929Z,2.40
2023-03-13T11:17:56.522Z,2.43
2023-03-13T11:23:16.014Z,3.10
2023-03-13T11:28:34.918Z,3.93
2023-03-13T11:33:47.515Z,3.10
2023-03-13T11:39:05.082Z,1.77
2023-03-13T11:44:31.883Z,2.97
2023-03-13T11:49:58.949Z,1.57
2023-03-13T11:55:22.277Z,2.77
2023-03-13T12:00:33.016Z,2.90
2023-03-13T12:05:43.493Z,2.63
2023-03-13T12:10:52.769Z,2.90
2023-03-13T12:16:03.053Z,2.97
2023-03-13T12:21:13.382Z,3.33
2023-03-13T12:26:20.911Z,5.97
2023-03-13T12:31:30.356Z,3.77
2023-03-13T12:36:41.539Z,5.60
2023-03-13T12:41:45.801Z,3.08
2023-03-13T12:47:02.888Z,3.20
2023-03-13T12:52:43.739Z,2.75
2023-03-13T12:58:16.074Z,3.03
2023-03-13T13:03:31.755Z,3.53
2023-03-13T13:08:39.927Z,5.18
2023-03-13T13:13:43.065Z,5.53
2023-03-13T13:18:47.426Z,6.57
2023-03-13T13:23:54.247Z,7.72
2023-03-13T13:28:59.130Z,7.40
2023-03-13T13:34:05.751Z,10.23
2023-03-13T13:39:32.478Z,9.02
2023-03-13T13:45:20.667Z,10.20
2023-03-13T13:50:31.274Z,9.32
2023-03-13T13:55:44.562Z,10.77
2023-03-13T14:00:53.800Z,11.07
2023-03-13T14:06:03.541Z,10.33
2023-03-13T14:11:17.828Z,9.30
2023-03-13T14:16:25.840Z,11.27
2023-03-13T14:21:30.725Z,10.73
2023-03-13T14:26:34.076Z,10.47
2023-03-13T14:31:38.712Z,11.52
2023-03-13T14:36:51.213Z,11.13
2023-03-13T14:41:54.502Z,9.30
2023-03-13T14:46:59.710Z,6.10
2023-03-13T14:52:08.037Z,8.90
2023-03-13T14:57:16.618Z,12.57
2023-03-13T15:02:29.659Z,9.10
2023-03-13T15:07:40.797Z,9.45
2023-03-13T15:12:45.632Z,11.40
2023-03-13T15:17:48.794Z,10.50
2023-03-13T15:22:53.291Z,11.65
2023-03-13T15:27:56.472Z,11.32
2023-03-13T15:33:01.254Z,10.90
2023-03-13T15:38:13.564Z,12.45
2023-03-13T15:43:17.300Z,10.80
2023-03-13T15:48:22.375Z,10.37
2023-03-13T15:53:29.325Z,10.32
2023-03-13T15:58:32.779Z,11.80
2023-03-13T16:03:36.071Z,14.80
2023-03-13T16:08:40.688Z,12.17
2023-03-13T16:13:44.151Z,12.40
2023-03-13T16:18:47.535Z,12.05
2023-03-13T16:23:52.163Z,9.57
2023-03-13T16:28:56.466Z,16.40
2023-03-13T16:34:00.801Z,12.27
2023-03-13T16:39:10.205Z,8.47
2023-03-13T16:44:13.349Z,13.17
2023-03-13T16:49:16.797Z,10.67
2023-03-13T16:54:21.860Z,12.47
2023-03-13T16:59:25.747Z,11.20
2023-03-13T17:04:29.083Z,11.40
2023-03-13T17:09:33.711Z,12.27
2023-03-13T17:14:36.966Z,11.13
2023-03-13T17:19:40.162Z,10.77
2023-03-13T17:24:44.837Z,10.33
2023-03-13T17:29:47.971Z,17.57
2023-03-13T17:34:51.417Z,11.23
2023-03-13T17:39:56.123Z,14.97
2023-03-13T17:44:59.456Z,12.60
2023-03-13T17:50:04.720Z,11.63
2023-03-13T17:55:13.002Z,11.90
2023-03-13T18:00:23.697Z,14.83
2023-03-13T18:05:27.569Z,14.93
2023-03-13T18:10:32.507Z,16.67
2023-03-13T18:15:35.727Z,20.23
2023-03-13T18:20:38.943Z,17.50
2023-03-13T18:25:43.608Z,15.30
2023-03-13T18:30:49.084Z,22.33
2023-03-13T18:35:52.355Z,14.97
2023-03-13T18:40:57.125Z,15.73
2023-03-13T18:46:00.494Z,18.83
2023-03-13T18:51:05.024Z,16.23
2023-03-13T18:56:17.115Z,21.73
2023-03-13T19:01:22.677Z,22.37
2023-03-13T19:06:27.966Z,18.23
2023-03-13T19:11:33.739Z,19.50
2023-03-13T19:16:39.742Z,17.27
2023-03-13T19:21:45.870Z,14.30
2023-03-13T19:26:54.062Z,14.03
2023-03-13T19:31:59.697Z,17.40
2023-03-13T19:37:03.178Z,17.50
2023-03-13T19:42:08.317Z,12.80
2023-03-13T19:47:15.631Z,17.20
2023-03-13T19:52:19.258Z,13.07
2023-03-13T19:57:23.894Z,14.90
2023-03-13T20:02:27.263Z,14.13
2023-03-13T20:07:30.639Z,13.20
2023-03-13T20:12:35.420Z,14.23
2023-03-13T20:17:38.600Z,15.27
2023-03-13T20:22:44.297Z,15.90
2023-03-13T20:27:56.680Z,14.83
2023-03-13T20:33:00.164Z,15.17
2023-03-13T20:38:05.202Z,17.53
2023-03-13T20:43:09.979Z,14.67
2023-03-13T20:48:13.162Z,14.17
2023-03-13T20:53:16.198Z,13.80
2023-03-13T20:58:21.053Z,15.43
2023-03-13T21:03:24.190Z,14.87
2023-03-13T21:08:27.563Z,11.67
2023-03-13T21:13:31.979Z,12.70
2023-03-13T21:18:35.368Z,14.80
2023-03-13T21:23:39.445Z,12.60
2023-03-13T21:28:44.005Z,13.77
2023-03-13T21:33:48.075Z,17.70
2023-03-13T21:38:51.643Z,12.23
2023-03-13T21:43:56.477Z,12.60
2023-03-13T21:49:00.288Z,15.20
2023-03-13T21:54:04.271Z,14.47
2023-03-13T21:59:08.966Z,12.70
2023-03-13T22:04:13.112Z,11.13
2023-03-13T22:09:16.324Z,17.87
2023-03-13T22:14:22.483Z,18.60
2023-03-13T22:19:25.574Z,14.53
2023-03-13T22:24:28.729Z,12.90
2023-03-13T22:29:34.734Z,12.67
2023-03-13T22:34:38.268Z,14.70
2023-03-13T22:39:41.632Z,12.60
2023-03-13T22:44:46.324Z,8.37
2023-03-13T22:49:50.561Z,9.50
2023-03-13T22:54:53.657Z,7.37
2023-03-13T22:59:59.221Z,7.27
2023-03-13T23:05:04.758Z,7.83
2023-03-13T23:10:12.285Z,7.80
2023-03-13T23:15:16.690Z,7.83
2023-03-13T23:20:20.051Z,7.80
2023-03-13T23:25:24.006Z,7.50
2023-03-13T23:30:28.618Z,10.27
2023-03-13T23:35:31.845Z,9.93
2023-03-13T23:40:35.141Z,14.00
2023-03-13T23:45:39.738Z,8.70
2023-03-13T23:50:42.829Z,9.87
2023-03-13T23:55:45.927Z,7.33
